sensor_id;sensor_type;location;lat;lon;timestamp;P1;durP1;ratioP1;P2;durP2;ratioP2
51048;SDS011;37084;55.228;36.450;2022-09-09T00:02:28;4.70;;;3.00;;
51048;SDS011;37084;55.228;36.450;2022-09-09T00:06:13;5.25;;;2.88;;
51048;SDS011;37084;55.228;36.450;2022-09-09T00:12:02;5.90;;;3.35;;
51048;SDS011;37084;55.228;36.450;2022-09-09T00:15:11;5.93;;;3.40;;
51048;SDS011;37084;55.228;36.450;2022-09-09T00:18:24;6.18;;;3.20;;
51048;SDS011;37084;55.228;36.450;2022-09-09T00:21:38;5.43;;;3.30;;
51048;SDS011;37084;55.228;36.450;2022-09-09T00:24:46;3.80;;;2.78;;
51048;SDS011;37084;55.228;36.450;2022-09-09T00:27:49;5.72;;;3.25;;
51048;SDS011;37084;55.228;36.450;2022-09-09T00:30:51;6.03;;;2.83;;
51048;SDS011;37084;55.228;36.450;2022-09-09T00:33:53;4.88;;;2.97;;
51048;SDS011;37084;55.228;36.450;2022-09-09T00:36:56;4.65;;;3.50;;
51048;SDS011;37084;55.228;36.450;2022-09-09T00:39:59;5.72;;;2.78;;
51048;SDS011;37084;55.228;36.450;2022-09-09T00:43:21;5.95;;;3.25;;
51048;SDS011;37084;55.228;36.450;2022-09-09T00:56:43;5.40;;;3.17;;
51048;SDS011;37084;55.228;36.450;2022-09-09T00:59:52;4.95;;;2.30;;
51048;SDS011;37084;55.228;36.450;2022-09-09T01:06:49;4.45;;;2.90;;
51048;SDS011;37084;55.228;36.450;2022-09-09T01:09:57;5.50;;;3.45;;
51048;SDS011;37084;55.228;36.450;2022-09-09T01:13:01;5.72;;;3.00;;
51048;SDS011;37084;55.228;36.450;2022-09-09T01:16:07;7.72;;;3.55;;
51048;SDS011;37084;55.228;36.450;2022-09-09T01:19:30;5.13;;;3.08;;
51048;SDS011;37084;55.228;36.450;2022-09-09T01:22:42;5.35;;;3.05;;
51048;SDS011;37084;55.228;36.450;2022-09-09T01:29:30;6.97;;;3.75;;
51048;SDS011;37084;55.228;36.450;2022-09-09T01:35:43;5.47;;;3.05;;
51048;SDS011;37084;55.228;36.450;2022-09-09T01:38:46;7.97;;;3.45;;
51048;SDS011;37084;55.228;36.450;2022-09-09T01:41:49;4.93;;;3.05;;
51048;SDS011;37084;55.228;36.450;2022-09-09T01:44:52;6.00;;;3.17;;
51048;SDS011;37084;55.228;36.450;2022-09-09T01:47:55;6.00;;;3.53;;
51048;SDS011;37084;55.228;36.450;2022-09-09T01:51:13;5.75;;;3.45;;
51048;SDS011;37084;55.228;36.450;2022-09-09T01:54:15;6.65;;;3.22;;
51048;SDS011;37084;55.228;36.450;2022-09-09T01:57:24;6.85;;;3.85;;
51048;SDS011;37084;55.228;36.450;2022-09-09T02:00:33;7.55;;;4.10;;
51048;SDS011;37084;55.228;36.450;2022-09-09T02:03:36;6.68;;;3.67;;
51048;SDS011;37084;55.228;36.450;2022-09-09T02:06:50;6.13;;;3.30;;
51048;SDS011;37084;55.228;36.450;2022-09-09T02:10:10;10.30;;;4.22;;
51048;SDS011;37084;55.228;36.450;2022-09-09T02:13:20;7.30;;;3.20;;
51048;SDS011;37084;55.228;36.450;2022-09-09T02:16:39;7.05;;;3.90;;
51048;SDS011;37084;55.228;36.450;2022-09-09T02:19:46;7.05;;;4.35;;
51048;SDS011;37084;55.228;36.450;2022-09-09T02:23:05;60.10;;;6.38;;
51048;SDS011;37084;55.228;36.450;2022-09-09T02:26:10;57.58;;;6.63;;
51048;SDS011;37084;55.228;36.450;2022-09-09T02:29:15;33.50;;;5.15;;
51048;SDS011;37084;55.228;36.450;2022-09-09T02:32:22;25.73;;;4.53;;
51048;SDS011;37084;55.228;36.450;2022-09-09T02:35:25;8.75;;;3.60;;
51048;SDS011;37084;55.228;36.450;2022-09-09T02:38:27;7.93;;;3.55;;
51048;SDS011;37084;55.228;36.450;2022-09-09T02:41:40;10.63;;;4.65;;
51048;SDS011;37084;55.228;36.450;2022-09-09T02:44:42;11.15;;;4.55;;
51048;SDS011;37084;55.228;36.450;2022-09-09T02:47:50;12.07;;;5.00;;
51048;SDS011;37084;55.228;36.450;2022-09-09T02:54:26;54.13;;;6.80;;
51048;SDS011;37084;55.228;36.450;2022-09-09T02:57:41;99.60;;;7.70;;
51048;SDS011;37084;55.228;36.450;2022-09-09T03:00:45;101.90;;;9.05;;
51048;SDS011;37084;55.228;36.450;2022-09-09T03:03:47;56.83;;;7.57;;
51048;SDS011;37084;55.228;36.450;2022-09-09T03:06:50;25.25;;;4.40;;
51048;SDS011;37084;55.228;36.450;2022-09-09T03:09:54;15.77;;;4.90;;
51048;SDS011;37084;55.228;36.450;2022-09-09T03:12:58;8.77;;;3.95;;
51048;SDS011;37084;55.228;36.450;2022-09-09T03:16:04;9.00;;;4.20;;
51048;SDS011;37084;55.228;36.450;2022-09-09T03:19:11;8.60;;;4.20;;
51048;SDS011;37084;55.228;36.450;2022-09-09T03:22:12;9.13;;;4.22;;
51048;SDS011;37084;55.228;36.450;2022-09-09T03:25:16;8.77;;;4.35;;
51048;SDS011;37084;55.228;36.450;2022-09-09T03:28:18;8.13;;;4.07;;
51048;SDS011;37084;55.228;36.450;2022-09-09T03:31:22;8.55;;;4.28;;
51048;SDS011;37084;55.228;36.450;2022-09-09T03:34:25;10.50;;;3.88;;
51048;SDS011;37084;55.228;36.450;2022-09-09T03:37:27;21.40;;;4.28;;
51048;SDS011;37084;55.228;36.450;2022-09-09T03:40:29;35.63;;;4.45;;
51048;SDS011;37084;55.228;36.450;2022-09-09T03:43:31;33.55;;;6.57;;
51048;SDS011;37084;55.228;36.450;2022-09-09T03:46:33;8.32;;;3.55;;
51048;SDS011;37084;55.228;36.450;2022-09-09T03:49:53;6.18;;;3.28;;
51048;SDS011;37084;55.228;36.450;2022-09-09T03:52:54;8.60;;;4.50;;
51048;SDS011;37084;55.228;36.450;2022-09-09T03:55:57;7.22;;;3.47;;
51048;SDS011;37084;55.228;36.450;2022-09-09T03:59:01;7.60;;;4.10;;
51048;SDS011;37084;55.228;36.450;2022-09-09T04:02:05;7.82;;;4.03;;
51048;SDS011;37084;55.228;36.450;2022-09-09T04:05:07;9.10;;;4.57;;
51048;SDS011;37084;55.228;36.450;2022-09-09T04:08:08;9.20;;;3.72;;
51048;SDS011;37084;55.228;36.450;2022-09-09T04:11:10;8.20;;;4.38;;
51048;SDS011;37084;55.228;36.450;2022-09-09T04:14:12;7.38;;;3.30;;
51048;SDS011;37084;55.228;36.450;2022-09-09T04:17:13;7.15;;;3.70;;
51048;SDS011;37084;55.228;36.450;2022-09-09T04:20:15;4.88;;;3.15;;
51048;SDS011;37084;55.228;36.450;2022-09-09T04:23:16;6.53;;;3.67;;
51048;SDS011;37084;55.228;36.450;2022-09-09T04:26:21;7.10;;;3.20;;
51048;SDS011;37084;55.228;36.450;2022-09-09T04:29:22;6.18;;;3.80;;
51048;SDS011;37084;55.228;36.450;2022-09-09T04:32:24;5.78;;;2.85;;
51048;SDS011;37084;55.228;36.450;2022-09-09T04:35:28;5.80;;;3.97;;
51048;SDS011;37084;55.228;36.450;2022-09-09T04:38:30;4.72;;;2.88;;
51048;SDS011;37084;55.228;36.450;2022-09-09T04:41:32;5.40;;;3.33;;
51048;SDS011;37084;55.228;36.450;2022-09-09T04:44:34;5.05;;;3.28;;
51048;SDS011;37084;55.228;36.450;2022-09-09T04:47:35;4.05;;;3.08;;
51048;SDS011;37084;55.228;36.450;2022-09-09T04:50:36;4.60;;;3.15;;
51048;SDS011;37084;55.228;36.450;2022-09-09T04:53:56;5.07;;;2.95;;
51048;SDS011;37084;55.228;36.450;2022-09-09T04:56:57;5.93;;;3.67;;
51048;SDS011;37084;55.228;36.450;2022-09-09T04:59:59;5.63;;;2.88;;
51048;SDS011;37084;55.228;36.450;2022-09-09T05:03:06;5.45;;;3.00;;
51048;SDS011;37084;55.228;36.450;2022-09-09T05:06:10;4.60;;;2.85;;
51048;SDS011;37084;55.228;36.450;2022-09-09T05:09:13;4.00;;;2.55;;
51048;SDS011;37084;55.228;36.450;2022-09-09T05:12:15;5.40;;;3.17;;
51048;SDS011;37084;55.228;36.450;2022-09-09T05:15:24;3.00;;;2.58;;
51048;SDS011;37084;55.228;36.450;2022-09-09T05:18:26;2.65;;;2.17;;
51048;SDS011;37084;55.228;36.450;2022-09-09T05:21:28;2.97;;;2.40;;
51048;SDS011;37084;55.228;36.450;2022-09-09T05:24:31;2.72;;;2.00;;
51048;SDS011;37084;55.228;36.450;2022-09-09T05:27:34;3.28;;;1.98;;
51048;SDS011;37084;55.228;36.450;2022-09-09T05:30:35;3.33;;;2.47;;
51048;SDS011;37084;55.228;36.450;2022-09-09T05:33:38;3.47;;;1.98;;
51048;SDS011;37084;55.228;36.450;2022-09-09T05:36:41;2.47;;;1.73;;
51048;SDS011;37084;55.228;36.450;2022-09-09T05:39:43;2.33;;;1.27;;
51048;SDS011;37084;55.228;36.450;2022-09-09T05:42:45;3.10;;;1.85;;
51048;SDS011;37084;55.228;36.450;2022-09-09T05:45:47;2.58;;;1.67;;
51048;SDS011;37084;55.228;36.450;2022-09-09T05:48:49;2.28;;;2.08;;
51048;SDS011;37084;55.228;36.450;2022-09-09T05:51:53;2.33;;;1.45;;
51048;SDS011;37084;55.228;36.450;2022-09-09T05:54:55;2.38;;;1.83;;
51048;SDS011;37084;55.228;36.450;2022-09-09T05:57:57;1.52;;;1.38;;
51048;SDS011;37084;55.228;36.450;2022-09-09T06:01:00;3.63;;;1.77;;
51048;SDS011;37084;55.228;36.450;2022-09-09T06:04:02;1.70;;;1.58;;
51048;SDS011;37084;55.228;36.450;2022-09-09T06:07:06;2.08;;;1.40;;
51048;SDS011;37084;55.228;36.450;2022-09-09T06:10:08;2.50;;;1.80;;
51048;SDS011;37084;55.228;36.450;2022-09-09T06:13:10;2.58;;;1.50;;
51048;SDS011;37084;55.228;36.450;2022-09-09T06:16:14;2.38;;;1.40;;
51048;SDS011;37084;55.228;36.450;2022-09-09T06:19:17;1.85;;;1.73;;
51048;SDS011;37084;55.228;36.450;2022-09-09T06:22:19;2.60;;;1.25;;
51048;SDS011;37084;55.228;36.450;2022-09-09T06:25:20;1.75;;;1.20;;
51048;SDS011;37084;55.228;36.450;2022-09-09T06:28:21;1.85;;;1.10;;
51048;SDS011;37084;55.228;36.450;2022-09-09T06:31:24;2.33;;;1.20;;
51048;SDS011;37084;55.228;36.450;2022-09-09T06:34:27;2.25;;;1.65;;
51048;SDS011;37084;55.228;36.450;2022-09-09T06:37:31;1.70;;;1.45;;
51048;SDS011;37084;55.228;36.450;2022-09-09T06:40:33;3.47;;;1.10;;
51048;SDS011;37084;55.228;36.450;2022-09-09T06:43:34;1.65;;;1.55;;
51048;SDS011;37084;55.228;36.450;2022-09-09T06:46:36;1.05;;;0.93;;
51048;SDS011;37084;55.228;36.450;2022-09-09T06:49:37;2.40;;;1.13;;
51048;SDS011;37084;55.228;36.450;2022-09-09T06:52:42;2.72;;;0.95;;
51048;SDS011;37084;55.228;36.450;2022-09-09T06:55:48;1.40;;;1.30;;
51048;SDS011;37084;55.228;36.450;2022-09-09T06:58:51;0.80;;;0.80;;
51048;SDS011;37084;55.228;36.450;2022-09-09T07:01:59;1.02;;;0.93;;
51048;SDS011;37084;55.228;36.450;2022-09-09T07:05:01;2.60;;;1.10;;
51048;SDS011;37084;55.228;36.450;2022-09-09T07:08:04;0.60;;;0.60;;
51048;SDS011;37084;55.228;36.450;2022-09-09T07:11:07;1.67;;;0.80;;
51048;SDS011;37084;55.228;36.450;2022-09-09T07:14:11;1.23;;;1.10;;
51048;SDS011;37084;55.228;36.450;2022-09-09T07:17:15;1.17;;;0.90;;
51048;SDS011;37084;55.228;36.450;2022-09-09T07:20:17;0.98;;;0.80;;
51048;SDS011;37084;55.228;36.450;2022-09-09T07:23:18;0.75;;;0.75;;
51048;SDS011;37084;55.228;36.450;2022-09-09T07:26:20;0.82;;;0.80;;
51048;SDS011;37084;55.228;36.450;2022-09-09T07:32:25;1.05;;;0.95;;
51048;SDS011;37084;55.228;36.450;2022-09-09T07:35:27;1.23;;;1.08;;
51048;SDS011;37084;55.228;36.450;2022-09-09T07:38:29;1.08;;;0.90;;
51048;SDS011;37084;55.228;36.450;2022-09-09T07:41:32;1.33;;;0.77;;
51048;SDS011;37084;55.228;36.450;2022-09-09T07:47:42;0.85;;;0.60;;
51048;SDS011;37084;55.228;36.450;2022-09-09T07:50:43;1.15;;;0.60;;
51048;SDS011;37084;55.228;36.450;2022-09-09T07:53:45;1.10;;;0.70;;
51048;SDS011;37084;55.228;36.450;2022-09-09T07:56:47;2.58;;;0.73;;
51048;SDS011;37084;55.228;36.450;2022-09-09T07:59:50;0.77;;;0.77;;
51048;SDS011;37084;55.228;36.450;2022-09-09T08:02:52;0.50;;;0.50;;
51048;SDS011;37084;55.228;36.450;2022-09-09T08:05:59;0.90;;;0.82;;
51048;SDS011;37084;55.228;36.450;2022-09-09T08:09:03;2.42;;;1.23;;
51048;SDS011;37084;55.228;36.450;2022-09-09T08:12:06;0.90;;;0.80;;
51048;SDS011;37084;55.228;36.450;2022-09-09T08:15:09;1.58;;;0.75;;
51048;SDS011;37084;55.228;36.450;2022-09-09T08:18:10;1.67;;;0.63;;
51048;SDS011;37084;55.228;36.450;2022-09-09T08:21:13;0.90;;;0.63;;
51048;SDS011;37084;55.228;36.450;2022-09-09T08:24:17;0.65;;;0.60;;
51048;SDS011;37084;55.228;36.450;2022-09-09T08:27:23;0.95;;;0.90;;
51048;SDS011;37084;55.228;36.450;2022-09-09T08:30:26;0.75;;;0.75;;
51048;SDS011;37084;55.228;36.450;2022-09-09T08:33:27;0.57;;;0.45;;
51048;SDS011;37084;55.228;36.450;2022-09-09T08:36:30;0.93;;;0.63;;
51048;SDS011;37084;55.228;36.450;2022-09-09T08:39:42;0.70;;;0.50;;
51048;SDS011;37084;55.228;36.450;2022-09-09T08:42:45;0.40;;;0.40;;
51048;SDS011;37084;55.228;36.450;2022-09-09T08:45:54;1.23;;;0.40;;
51048;SDS011;37084;55.228;36.450;2022-09-09T08:52:28;0.63;;;0.50;;
51048;SDS011;37084;55.228;36.450;2022-09-09T08:59:00;1.33;;;0.75;;
51048;SDS011;37084;55.228;36.450;2022-09-09T09:02:17;1.45;;;0.60;;
51048;SDS011;37084;55.228;36.450;2022-09-09T09:08:44;0.73;;;0.50;;
51048;SDS011;37084;55.228;36.450;2022-09-09T09:11:59;0.65;;;0.50;;
51048;SDS011;37084;55.228;36.450;2022-09-09T09:15:11;3.30;;;2.42;;
51048;SDS011;37084;55.228;36.450;2022-09-09T09:18:18;1.33;;;0.60;;
51048;SDS011;37084;55.228;36.450;2022-09-09T09:31:15;0.75;;;0.75;;
51048;SDS011;37084;55.228;36.450;2022-09-09T09:34:20;0.63;;;0.63;;
51048;SDS011;37084;55.228;36.450;2022-09-09T09:37:25;0.50;;;0.50;;
51048;SDS011;37084;55.228;36.450;2022-09-09T09:40:31;0.57;;;0.57;;
51048;SDS011;37084;55.228;36.450;2022-09-09T09:43:36;0.63;;;0.63;;
51048;SDS011;37084;55.228;36.450;2022-09-09T09:46:43;1.25;;;0.60;;
51048;SDS011;37084;55.228;36.450;2022-09-09T09:49:51;0.82;;;0.73;;
51048;SDS011;37084;55.228;36.450;2022-09-09T09:52:55;1.00;;;1.00;;
51048;SDS011;37084;55.228;36.450;2022-09-09T09:56:08;4.25;;;3.15;;
51048;SDS011;37084;55.228;36.450;2022-09-09T10:02:36;0.88;;;0.88;;
51048;SDS011;37084;55.228;36.450;2022-09-09T10:05:49;1.02;;;0.68;;
51048;SDS011;37084;55.228;36.450;2022-09-09T10:08:52;1.00;;;0.90;;
51048;SDS011;37084;55.228;36.450;2022-09-09T10:15:26;0.80;;;0.52;;
51048;SDS011;37084;55.228;36.450;2022-09-09T10:18:42;0.70;;;0.63;;
51048;SDS011;37084;55.228;36.450;2022-09-09T10:22:08;0.95;;;0.55;;
51048;SDS011;37084;55.228;36.450;2022-09-09T10:42:08;1.55;;;0.65;;
51048;SDS011;37084;55.228;36.450;2022-09-09T10:45:48;0.82;;;0.82;;
51048;SDS011;37084;55.228;36.450;2022-09-09T11:01:58;0.55;;;0.52;;
51048;SDS011;37084;55.228;36.450;2022-09-09T11:05:20;1.40;;;0.60;;
51048;SDS011;37084;55.228;36.450;2022-09-09T11:08:29;0.52;;;0.52;;
51048;SDS011;37084;55.228;36.450;2022-09-09T11:11:42;1.10;;;1.08;;
51048;SDS011;37084;55.228;36.450;2022-09-09T11:15:54;0.85;;;0.82;;
51048;SDS011;37084;55.228;36.450;2022-09-09T11:19:00;0.85;;;0.85;;
51048;SDS011;37084;55.228;36.450;2022-09-09T11:25:39;0.60;;;0.60;;
51048;SDS011;37084;55.228;36.450;2022-09-09T11:42:31;0.77;;;0.77;;
51048;SDS011;37084;55.228;36.450;2022-09-09T11:45:33;0.45;;;0.45;;
51048;SDS011;37084;55.228;36.450;2022-09-09T11:48:40;0.90;;;0.90;;
51048;SDS011;37084;55.228;36.450;2022-09-09T11:51:45;0.75;;;0.75;;
51048;SDS011;37084;55.228;36.450;2022-09-09T11:54:47;1.35;;;0.77;;
51048;SDS011;37084;55.228;36.450;2022-09-09T11:57:56;0.65;;;0.65;;
51048;SDS011;37084;55.228;36.450;2022-09-09T12:01:02;0.73;;;0.73;;
51048;SDS011;37084;55.228;36.450;2022-09-09T12:04:16;0.93;;;0.43;;
51048;SDS011;37084;55.228;36.450;2022-09-09T12:10:35;0.80;;;0.60;;
51048;SDS011;37084;55.228;36.450;2022-09-09T12:13:38;1.88;;;0.77;;
51048;SDS011;37084;55.228;36.450;2022-09-09T12:16:42;1.13;;;0.88;;
51048;SDS011;37084;55.228;36.450;2022-09-09T12:19:43;0.80;;;0.73;;
51048;SDS011;37084;55.228;36.450;2022-09-09T12:29:11;1.13;;;0.70;;
51048;SDS011;37084;55.228;36.450;2022-09-09T12:32:23;0.70;;;0.70;;
51048;SDS011;37084;55.228;36.450;2022-09-09T12:35:26;0.75;;;0.55;;
51048;SDS011;37084;55.228;36.450;2022-09-09T12:38:34;0.63;;;0.63;;
51048;SDS011;37084;55.228;36.450;2022-09-09T12:41:37;0.85;;;0.77;;
51048;SDS011;37084;55.228;36.450;2022-09-09T12:44:38;0.65;;;0.50;;
51048;SDS011;37084;55.228;36.450;2022-09-09T12:50:58;0.70;;;0.60;;
51048;SDS011;37084;55.228;36.450;2022-09-09T12:54:01;0.93;;;0.40;;
51048;SDS011;37084;55.228;36.450;2022-09-09T12:57:04;1.83;;;0.63;;
51048;SDS011;37084;55.228;36.450;2022-09-09T13:00:07;0.70;;;0.70;;
51048;SDS011;37084;55.228;36.450;2022-09-09T13:03:17;1.20;;;0.70;;
51048;SDS011;37084;55.228;36.450;2022-09-09T13:06:22;0.77;;;0.60;;
51048;SDS011;37084;55.228;36.450;2022-09-09T13:09:31;1.13;;;1.02;;
51048;SDS011;37084;55.228;36.450;2022-09-09T13:12:34;1.00;;;0.63;;
51048;SDS011;37084;55.228;36.450;2022-09-09T13:15:35;1.00;;;1.00;;
51048;SDS011;37084;55.228;36.450;2022-09-09T13:18:37;1.00;;;0.98;;
51048;SDS011;37084;55.228;36.450;2022-09-09T13:21:41;0.93;;;0.70;;
51048;SDS011;37084;55.228;36.450;2022-09-09T13:28:24;0.60;;;0.60;;
51048;SDS011;37084;55.228;36.450;2022-09-09T13:31:34;2.25;;;1.35;;
51048;SDS011;37084;55.228;36.450;2022-09-09T13:34:37;1.02;;;0.68;;
51048;SDS011;37084;55.228;36.450;2022-09-09T13:37:39;0.70;;;0.52;;
51048;SDS011;37084;55.228;36.450;2022-09-09T13:40:57;0.52;;;0.40;;
51048;SDS011;37084;55.228;36.450;2022-09-09T13:44:02;1.02;;;0.57;;
51048;SDS011;37084;55.228;36.450;2022-09-09T13:47:05;1.25;;;0.73;;
51048;SDS011;37084;55.228;36.450;2022-09-09T13:50:20;1.52;;;0.73;;
51048;SDS011;37084;55.228;36.450;2022-09-09T13:53:28;1.92;;;0.90;;
51048;SDS011;37084;55.228;36.450;2022-09-09T13:56:29;0.70;;;0.60;;
51048;SDS011;37084;55.228;36.450;2022-09-09T13:59:33;1.45;;;0.80;;
51048;SDS011;37084;55.228;36.450;2022-09-09T14:02:35;1.40;;;0.73;;
51048;SDS011;37084;55.228;36.450;2022-09-09T14:05:36;1.67;;;0.70;;
51048;SDS011;37084;55.228;36.450;2022-09-09T14:08:38;0.75;;;0.57;;
51048;SDS011;37084;55.228;36.450;2022-09-09T14:11:39;0.60;;;0.52;;
51048;SDS011;37084;55.228;36.450;2022-09-09T14:14:42;1.23;;;1.10;;
51048;SDS011;37084;55.228;36.450;2022-09-09T14:17:44;0.85;;;0.63;;
51048;SDS011;37084;55.228;36.450;2022-09-09T14:20:45;0.70;;;0.70;;
51048;SDS011;37084;55.228;36.450;2022-09-09T14:23:46;1.75;;;0.70;;
51048;SDS011;37084;55.228;36.450;2022-09-09T14:26:49;1.00;;;0.60;;
51048;SDS011;37084;55.228;36.450;2022-09-09T14:29:50;0.82;;;0.55;;
51048;SDS011;37084;55.228;36.450;2022-09-09T14:32:51;0.80;;;0.80;;
51048;SDS011;37084;55.228;36.450;2022-09-09T14:35:56;0.80;;;0.80;;
51048;SDS011;37084;55.228;36.450;2022-09-09T14:38:58;0.80;;;0.80;;
51048;SDS011;37084;55.228;36.450;2022-09-09T14:41:59;0.85;;;0.60;;
51048;SDS011;37084;55.228;36.450;2022-09-09T14:45:01;0.85;;;0.73;;
51048;SDS011;37084;55.228;36.450;2022-09-09T14:48:05;1.10;;;1.00;;
51048;SDS011;37084;55.228;36.450;2022-09-09T14:51:13;0.85;;;0.68;;
51048;SDS011;37084;55.228;36.450;2022-09-09T14:54:19;0.73;;;0.73;;
51048;SDS011;37084;55.228;36.450;2022-09-09T14:57:22;1.48;;;0.75;;
51048;SDS011;37084;55.228;36.450;2022-09-09T15:00:23;0.60;;;0.60;;
51048;SDS011;37084;55.228;36.450;2022-09-09T15:03:25;2.58;;;0.90;;
51048;SDS011;37084;55.228;36.450;2022-09-09T15:06:27;0.90;;;0.70;;
51048;SDS011;37084;55.228;36.450;2022-09-09T15:09:33;1.45;;;0.60;;
51048;SDS011;37084;55.228;36.450;2022-09-09T15:12:34;0.82;;;0.65;;
51048;SDS011;37084;55.228;36.450;2022-09-09T15:15:35;0.70;;;0.70;;
51048;SDS011;37084;55.228;36.450;2022-09-09T15:18:40;1.20;;;0.68;;
51048;SDS011;37084;55.228;36.450;2022-09-09T15:21:46;1.65;;;0.57;;
51048;SDS011;37084;55.228;36.450;2022-09-09T15:24:48;1.90;;;0.80;;
51048;SDS011;37084;55.228;36.450;2022-09-09T15:27:49;1.35;;;0.90;;
51048;SDS011;37084;55.228;36.450;2022-09-09T15:30:51;0.70;;;0.50;;
51048;SDS011;37084;55.228;36.450;2022-09-09T15:34:03;0.63;;;0.52;;
51048;SDS011;37084;55.228;36.450;2022-09-09T15:37:06;0.73;;;0.68;;
51048;SDS011;37084;55.228;36.450;2022-09-09T15:40:08;1.33;;;0.80;;
51048;SDS011;37084;55.228;36.450;2022-09-09T15:43:11;0.80;;;0.75;;
51048;SDS011;37084;55.228;36.450;2022-09-09T15:49:24;1.25;;;0.70;;
51048;SDS011;37084;55.228;36.450;2022-09-09T15:52:26;1.23;;;0.65;;
51048;SDS011;37084;55.228;36.450;2022-09-09T15:55:28;0.82;;;0.82;;
51048;SDS011;37084;55.228;36.450;2022-09-09T15:58:30;0.85;;;0.82;;
51048;SDS011;37084;55.228;36.450;2022-09-09T16:01:32;2.08;;;0.63;;
51048;SDS011;37084;55.228;36.450;2022-09-09T16:04:37;1.17;;;0.82;;
51048;SDS011;37084;55.228;36.450;2022-09-09T16:07:38;1.00;;;0.90;;
51048;SDS011;37084;55.228;36.450;2022-09-09T16:10:39;1.55;;;0.80;;
51048;SDS011;37084;55.228;36.450;2022-09-09T16:13:41;6.38;;;1.42;;
51048;SDS011;37084;55.228;36.450;2022-09-09T16:16:44;139.00;;;67.90;;
51048;SDS011;37084;55.228;36.450;2022-09-09T16:19:46;245.98;;;136.82;;
51048;SDS011;37084;55.228;36.450;2022-09-09T16:22:48;71.22;;;63.08;;
51048;SDS011;37084;55.228;36.450;2022-09-09T16:25:55;18.13;;;16.17;;
51048;SDS011;37084;55.228;36.450;2022-09-09T16:28:57;6.97;;;6.10;;
51048;SDS011;37084;55.228;36.450;2022-09-09T16:32:00;4.45;;;4.05;;
51048;SDS011;37084;55.228;36.450;2022-09-09T16:35:03;3.55;;;2.28;;
51048;SDS011;37084;55.228;36.450;2022-09-09T16:38:06;2.55;;;1.08;;
51048;SDS011;37084;55.228;36.450;2022-09-09T16:41:09;3.45;;;1.10;;
51048;SDS011;37084;55.228;36.450;2022-09-09T16:44:12;1.98;;;1.20;;
51048;SDS011;37084;55.228;36.450;2022-09-09T16:47:16;6.57;;;3.60;;
51048;SDS011;37084;55.228;36.450;2022-09-09T16:50:18;7.30;;;3.55;;
51048;SDS011;37084;55.228;36.450;2022-09-09T16:53:20;9.18;;;4.07;;
51048;SDS011;37084;55.228;36.450;2022-09-09T16:56:22;5.32;;;3.30;;
51048;SDS011;37084;55.228;36.450;2022-09-09T16:59:30;4.07;;;2.17;;
51048;SDS011;37084;55.228;36.450;2022-09-09T17:02:32;4.82;;;1.60;;
51048;SDS011;37084;55.228;36.450;2022-09-09T17:05:38;3.17;;;1.80;;
51048;SDS011;37084;55.228;36.450;2022-09-09T17:08:41;5.28;;;2.10;;
51048;SDS011;37084;55.228;36.450;2022-09-09T17:11:42;10.57;;;6.55;;
51048;SDS011;37084;55.228;36.450;2022-09-09T17:14:49;6.85;;;4.43;;
51048;SDS011;37084;55.228;36.450;2022-09-09T17:17:51;10.73;;;5.78;;
51048;SDS011;37084;55.228;36.450;2022-09-09T17:20:54;6.63;;;3.40;;
51048;SDS011;37084;55.228;36.450;2022-09-09T17:23:56;7.32;;;3.38;;
51048;SDS011;37084;55.228;36.450;2022-09-09T17:26:58;6.85;;;3.03;;
51048;SDS011;37084;55.228;36.450;2022-09-09T17:30:03;3.85;;;2.60;;
51048;SDS011;37084;55.228;36.450;2022-09-09T17:33:06;5.18;;;2.20;;
51048;SDS011;37084;55.228;36.450;2022-09-09T17:36:14;2.47;;;1.90;;
51048;SDS011;37084;55.228;36.450;2022-09-09T17:39:18;1.90;;;1.65;;
51048;SDS011;37084;55.228;36.450;2022-09-09T17:42:20;3.17;;;1.52;;
51048;SDS011;37084;55.228;36.450;2022-09-09T17:45:22;2.25;;;1.40;;
51048;SDS011;37084;55.228;36.450;2022-09-09T17:48:24;2.53;;;1.55;;
51048;SDS011;37084;55.228;36.450;2022-09-09T17:51:27;2.00;;;1.52;;
51048;SDS011;37084;55.228;36.450;2022-09-09T17:57:34;1.85;;;1.50;;
51048;SDS011;37084;55.228;36.450;2022-09-09T18:00:37;2.03;;;1.60;;
51048;SDS011;37084;55.228;36.450;2022-09-09T18:03:47;2.72;;;1.77;;
51048;SDS011;37084;55.228;36.450;2022-09-09T18:06:51;5.45;;;1.98;;
51048;SDS011;37084;55.228;36.450;2022-09-09T18:12:58;3.20;;;1.83;;
51048;SDS011;37084;55.228;36.450;2022-09-09T18:16:05;4.93;;;2.15;;
51048;SDS011;37084;55.228;36.450;2022-09-09T18:19:09;5.00;;;2.33;;
51048;SDS011;37084;55.228;36.450;2022-09-09T18:22:17;5.03;;;3.55;;
51048;SDS011;37084;55.228;36.450;2022-09-09T18:25:23;4.35;;;3.20;;
51048;SDS011;37084;55.228;36.450;2022-09-09T18:28:25;4.40;;;2.78;;
51048;SDS011;37084;55.228;36.450;2022-09-09T18:31:27;3.28;;;2.05;;
51048;SDS011;37084;55.228;36.450;2022-09-09T18:34:29;3.90;;;2.90;;
51048;SDS011;37084;55.228;36.450;2022-09-09T18:37:32;2.83;;;2.20;;
51048;SDS011;37084;55.228;36.450;2022-09-09T18:40:35;4.13;;;2.10;;
51048;SDS011;37084;55.228;36.450;2022-09-09T18:43:37;4.95;;;2.05;;
51048;SDS011;37084;55.228;36.450;2022-09-09T18:46:39;3.10;;;1.42;;
51048;SDS011;37084;55.228;36.450;2022-09-09T18:49:40;2.53;;;1.23;;
51048;SDS011;37084;55.228;36.450;2022-09-09T18:52:43;2.67;;;1.48;;
51048;SDS011;37084;55.228;36.450;2022-09-09T18:55:44;2.97;;;1.95;;
51048;SDS011;37084;55.228;36.450;2022-09-09T18:58:50;2.38;;;1.40;;
51048;SDS011;37084;55.228;36.450;2022-09-09T19:01:57;2.20;;;1.75;;
51048;SDS011;37084;55.228;36.450;2022-09-09T19:05:09;1.98;;;1.38;;
51048;SDS011;37084;55.228;36.450;2022-09-09T19:08:13;1.80;;;1.70;;
51048;SDS011;37084;55.228;36.450;2022-09-09T19:11:17;2.10;;;1.48;;
51048;SDS011;37084;55.228;36.450;2022-09-09T19:14:25;2.78;;;1.48;;
51048;SDS011;37084;55.228;36.450;2022-09-09T19:17:29;3.33;;;2.20;;
51048;SDS011;37084;55.228;36.450;2022-09-09T19:20:33;2.40;;;1.63;;
51048;SDS011;37084;55.228;36.450;2022-09-09T19:23:35;2.10;;;1.70;;
51048;SDS011;37084;55.228;36.450;2022-09-09T19:26:39;3.33;;;1.50;;
51048;SDS011;37084;55.228;36.450;2022-09-09T19:29:45;3.05;;;2.55;;
51048;SDS011;37084;55.228;36.450;2022-09-09T19:32:51;3.15;;;1.77;;
51048;SDS011;37084;55.228;36.450;2022-09-09T19:35:56;3.67;;;2.70;;
51048;SDS011;37084;55.228;36.450;2022-09-09T19:38:59;3.22;;;2.13;;
51048;SDS011;37084;55.228;36.450;2022-09-09T19:42:02;3.25;;;2.33;;
51048;SDS011;37084;55.228;36.450;2022-09-09T19:45:06;2.90;;;1.92;;
51048;SDS011;37084;55.228;36.450;2022-09-09T19:48:10;2.72;;;1.63;;
51048;SDS011;37084;55.228;36.450;2022-09-09T19:51:16;3.72;;;1.80;;
51048;SDS011;37084;55.228;36.450;2022-09-09T19:54:22;4.30;;;1.63;;
51048;SDS011;37084;55.228;36.450;2022-09-09T19:57:23;3.17;;;1.83;;
51048;SDS011;37084;55.228;36.450;2022-09-09T20:00:30;3.95;;;2.63;;
51048;SDS011;37084;55.228;36.450;2022-09-09T20:03:34;3.03;;;1.63;;
51048;SDS011;37084;55.228;36.450;2022-09-09T20:06:40;2.20;;;1.92;;
51048;SDS011;37084;55.228;36.450;2022-09-09T20:09:43;2.58;;;2.10;;
51048;SDS011;37084;55.228;36.450;2022-09-09T20:12:46;3.00;;;2.30;;
51048;SDS011;37084;55.228;36.450;2022-09-09T20:15:56;3.10;;;1.92;;
51048;SDS011;37084;55.228;36.450;2022-09-09T20:19:00;2.88;;;2.00;;
51048;SDS011;37084;55.228;36.450;2022-09-09T20:22:03;3.95;;;2.17;;
51048;SDS011;37084;55.228;36.450;2022-09-09T20:25:04;6.03;;;2.30;;
51048;SDS011;37084;55.228;36.450;2022-09-09T20:28:07;7.10;;;2.08;;
51048;SDS011;37084;55.228;36.450;2022-09-09T20:31:12;3.30;;;2.28;;